sensor_id;sensor_type;location;lat;lon;timestamp;P1;durP1;ratioP1;P2;durP2;ratioP2
64293;SDS011;50636;45.596;5.258;2022-10-16T00:01:51;13.48;;;2.40;;
64293;SDS011;50636;45.596;5.258;2022-10-16T00:04:17;9.73;;;2.60;;
64293;SDS011;50636;45.596;5.258;2022-10-16T00:06:43;5.68;;;2.30;;
64293;SDS011;50636;45.596;5.258;2022-10-16T00:09:08;3.67;;;2.22;;
64293;SDS011;50636;45.596;5.258;2022-10-16T00:11:35;5.63;;;2.47;;
64293;SDS011;50636;45.596;5.258;2022-10-16T00:14:04;5.18;;;2.33;;
64293;SDS011;50636;45.596;5.258;2022-10-16T00:16:33;4.70;;;2.30;;
64293;SDS011;50636;45.596;5.258;2022-10-16T00:18:59;5.15;;;2.40;;
64293;SDS011;50636;45.596;5.258;2022-10-16T00:21:26;4.38;;;2.30;;
64293;SDS011;50636;45.596;5.258;2022-10-16T00:23:56;5.22;;;1.92;;
64293;SDS011;50636;45.596;5.258;2022-10-16T00:28:56;6.22;;;2.00;;
64293;SDS011;50636;45.596;5.258;2022-10-16T00:31:22;4.38;;;2.42;;
64293;SDS011;50636;45.596;5.258;2022-10-16T00:33:48;7.97;;;2.92;;
64293;SDS011;50636;45.596;5.258;2022-10-16T00:36:16;4.85;;;2.10;;
64293;SDS011;50636;45.596;5.258;2022-10-16T00:38:44;7.63;;;2.33;;
64293;SDS011;50636;45.596;5.258;2022-10-16T00:41:10;4.53;;;2.28;;
64293;SDS011;50636;45.596;5.258;2022-10-16T00:43:49;5.93;;;2.10;;
64293;SDS011;50636;45.596;5.258;2022-10-16T00:48:55;6.32;;;2.30;;
64293;SDS011;50636;45.596;5.258;2022-10-16T00:51:35;4.15;;;2.17;;
64293;SDS011;50636;45.596;5.258;2022-10-16T00:54:12;3.42;;;2.20;;
64293;SDS011;50636;45.596;5.258;2022-10-16T00:59:19;4.90;;;2.47;;
64293;SDS011;50636;45.596;5.258;2022-10-16T01:01:49;9.82;;;2.58;;
64293;SDS011;50636;45.596;5.258;2022-10-16T01:04:16;9.73;;;2.45;;
64293;SDS011;50636;45.596;5.258;2022-10-16T01:09:22;3.72;;;2.28;;
64293;SDS011;50636;45.596;5.258;2022-10-16T01:12:14;6.95;;;2.67;;
64293;SDS011;50636;45.596;5.258;2022-10-16T01:15:08;6.93;;;2.25;;
64293;SDS011;50636;45.596;5.258;2022-10-16T01:17:49;8.73;;;2.30;;
64293;SDS011;50636;45.596;5.258;2022-10-16T01:28:32;5.03;;;2.47;;
64293;SDS011;50636;45.596;5.258;2022-10-16T01:31:04;5.05;;;2.70;;
64293;SDS011;50636;45.596;5.258;2022-10-16T01:33:32;3.97;;;2.22;;
64293;SDS011;50636;45.596;5.258;2022-10-16T01:36:10;6.40;;;2.20;;
64293;SDS011;50636;45.596;5.258;2022-10-16T01:38:40;7.03;;;2.40;;
64293;SDS011;50636;45.596;5.258;2022-10-16T01:41:21;5.75;;;2.58;;
64293;SDS011;50636;45.596;5.258;2022-10-16T01:46:29;6.13;;;2.30;;
64293;SDS011;50636;45.596;5.258;2022-10-16T01:48:56;5.07;;;2.40;;
64293;SDS011;50636;45.596;5.258;2022-10-16T01:51:24;5.07;;;2.28;;
64293;SDS011;50636;45.596;5.258;2022-10-16T01:53:55;5.78;;;2.53;;
64293;SDS011;50636;45.596;5.258;2022-10-16T01:56:24;9.45;;;4.90;;
64293;SDS011;50636;45.596;5.258;2022-10-16T01:58:59;5.78;;;2.47;;
64293;SDS011;50636;45.596;5.258;2022-10-16T02:01:29;11.20;;;8.13;;
64293;SDS011;50636;45.596;5.258;2022-10-16T02:03:59;5.57;;;2.40;;
64293;SDS011;50636;45.596;5.258;2022-10-16T02:06:30;4.72;;;2.78;;
64293;SDS011;50636;45.596;5.258;2022-10-16T02:08:57;6.57;;;2.95;;
64293;SDS011;50636;45.596;5.258;2022-10-16T02:11:24;6.63;;;2.83;;
64293;SDS011;50636;45.596;5.258;2022-10-16T02:13:59;6.32;;;2.80;;
64293;SDS011;50636;45.596;5.258;2022-10-16T02:16:36;5.10;;;2.63;;
64293;SDS011;50636;45.596;5.258;2022-10-16T02:21:32;6.80;;;3.47;;
64293;SDS011;50636;45.596;5.258;2022-10-16T02:24:18;7.18;;;2.63;;
64293;SDS011;50636;45.596;5.258;2022-10-16T02:29:30;5.53;;;3.00;;
64293;SDS011;50636;45.596;5.258;2022-10-16T02:32:03;6.40;;;2.60;;
64293;SDS011;50636;45.596;5.258;2022-10-16T02:34:32;8.05;;;3.38;;
64293;SDS011;50636;45.596;5.258;2022-10-16T02:36:59;5.30;;;2.80;;
64293;SDS011;50636;45.596;5.258;2022-10-16T02:39:28;5.22;;;2.65;;
64293;SDS011;50636;45.596;5.258;2022-10-16T02:41:55;9.32;;;3.10;;
64293;SDS011;50636;45.596;5.258;2022-10-16T02:44:21;4.05;;;2.70;;
64293;SDS011;50636;45.596;5.258;2022-10-16T02:46:47;5.80;;;3.70;;
64293;SDS011;50636;45.596;5.258;2022-10-16T02:49:12;8.40;;;3.70;;
64293;SDS011;50636;45.596;5.258;2022-10-16T02:51:38;7.38;;;2.83;;
64293;SDS011;50636;45.596;5.258;2022-10-16T02:54:04;10.10;;;3.22;;
64293;SDS011;50636;45.596;5.258;2022-10-16T02:56:29;4.93;;;3.25;;
64293;SDS011;50636;45.596;5.258;2022-10-16T02:58:56;6.70;;;3.55;;
64293;SDS011;50636;45.596;5.258;2022-10-16T03:01:21;9.95;;;3.47;;
64293;SDS011;50636;45.596;5.258;2022-10-16T03:03:48;7.28;;;3.35;;
64293;SDS011;50636;45.596;5.258;2022-10-16T03:06:13;8.77;;;3.85;;
64293;SDS011;50636;45.596;5.258;2022-10-16T03:08:39;17.20;;;5.45;;
64293;SDS011;50636;45.596;5.258;2022-10-16T03:11:05;6.18;;;3.35;;
64293;SDS011;50636;45.596;5.258;2022-10-16T03:13:31;9.95;;;3.42;;
64293;SDS011;50636;45.596;5.258;2022-10-16T03:15:56;7.35;;;3.13;;
64293;SDS011;50636;45.596;5.258;2022-10-16T03:18:22;7.88;;;3.60;;
64293;SDS011;50636;45.596;5.258;2022-10-16T03:20:48;8.60;;;4.07;;
64293;SDS011;50636;45.596;5.258;2022-10-16T03:23:13;6.57;;;3.47;;
64293;SDS011;50636;45.596;5.258;2022-10-16T03:25:39;5.78;;;3.42;;
64293;SDS011;50636;45.596;5.258;2022-10-16T03:28:05;6.15;;;3.15;;
64293;SDS011;50636;45.596;5.258;2022-10-16T03:30:31;10.82;;;3.92;;
64293;SDS011;50636;45.596;5.258;2022-10-16T03:32:57;5.38;;;3.60;;
64293;SDS011;50636;45.596;5.258;2022-10-16T03:35:23;8.80;;;4.32;;
64293;SDS011;50636;45.596;5.258;2022-10-16T03:37:49;6.85;;;3.55;;
64293;SDS011;50636;45.596;5.258;2022-10-16T03:40:15;8.32;;;4.28;;
64293;SDS011;50636;45.596;5.258;2022-10-16T03:42:44;10.55;;;4.72;;
64293;SDS011;50636;45.596;5.258;2022-10-16T03:45:10;9.95;;;4.05;;
64293;SDS011;50636;45.596;5.258;2022-10-16T03:47:36;9.32;;;4.38;;
64293;SDS011;50636;45.596;5.258;2022-10-16T03:50:02;6.53;;;4.05;;
64293;SDS011;50636;45.596;5.258;2022-10-16T03:52:29;9.32;;;3.58;;
64293;SDS011;50636;45.596;5.258;2022-10-16T03:54:54;6.05;;;4.13;;
64293;SDS011;50636;45.596;5.258;2022-10-16T03:57:20;9.85;;;4.22;;
64293;SDS011;50636;45.596;5.258;2022-10-16T03:59:46;8.32;;;3.70;;
64293;SDS011;50636;45.596;5.258;2022-10-16T04:02:12;6.72;;;3.55;;
64293;SDS011;50636;45.596;5.258;2022-10-16T04:04:38;7.13;;;3.80;;
64293;SDS011;50636;45.596;5.258;2022-10-16T04:07:04;10.90;;;3.78;;
64293;SDS011;50636;45.596;5.258;2022-10-16T04:09:30;7.40;;;3.42;;
64293;SDS011;50636;45.596;5.258;2022-10-16T04:11:55;6.03;;;3.50;;
64293;SDS011;50636;45.596;5.258;2022-10-16T04:14:21;7.13;;;3.67;;
64293;SDS011;50636;45.596;5.258;2022-10-16T04:16:47;10.32;;;3.90;;
64293;SDS011;50636;45.596;5.258;2022-10-16T04:19:12;6.38;;;3.47;;
64293;SDS011;50636;45.596;5.258;2022-10-16T04:21:38;7.47;;;3.30;;
64293;SDS011;50636;45.596;5.258;2022-10-16T04:24:04;5.15;;;3.55;;
64293;SDS011;50636;45.596;5.258;2022-10-16T04:26:30;7.28;;;3.47;;
64293;SDS011;50636;45.596;5.258;2022-10-16T04:28:55;8.10;;;4.18;;
64293;SDS011;50636;45.596;5.258;2022-10-16T04:31:21;9.05;;;4.05;;
64293;SDS011;50636;45.596;5.258;2022-10-16T04:33:47;6.32;;;3.78;;
64293;SDS011;50636;45.596;5.258;2022-10-16T04:36:13;7.13;;;3.72;;
64293;SDS011;50636;45.596;5.258;2022-10-16T04:38:39;7.85;;;3.80;;
64293;SDS011;50636;45.596;5.258;2022-10-16T04:41:05;7.13;;;3.58;;
64293;SDS011;50636;45.596;5.258;2022-10-16T04:43:32;7.35;;;3.60;;
64293;SDS011;50636;45.596;5.258;2022-10-16T04:45:58;6.35;;;3.90;;
64293;SDS011;50636;45.596;5.258;2022-10-16T04:48:24;6.75;;;3.78;;
64293;SDS011;50636;45.596;5.258;2022-10-16T04:50:49;9.63;;;4.32;;
64293;SDS011;50636;45.596;5.258;2022-10-16T04:53:15;9.32;;;4.05;;
64293;SDS011;50636;45.596;5.258;2022-10-16T04:55:41;6.97;;;3.78;;
64293;SDS011;50636;45.596;5.258;2022-10-16T04:58:07;7.47;;;3.90;;
64293;SDS011;50636;45.596;5.258;2022-10-16T05:00:33;10.40;;;4.53;;
64293;SDS011;50636;45.596;5.258;2022-10-16T05:02:59;7.43;;;3.63;;
64293;SDS011;50636;45.596;5.258;2022-10-16T05:05:26;3.92;;;2.78;;
64293;SDS011;50636;45.596;5.258;2022-10-16T05:07:52;9.07;;;3.50;;
64293;SDS011;50636;45.596;5.258;2022-10-16T05:10:18;5.95;;;3.33;;
64293;SDS011;50636;45.596;5.258;2022-10-16T05:12:46;9.10;;;4.25;;
64293;SDS011;50636;45.596;5.258;2022-10-16T05:15:12;4.95;;;3.03;;
64293;SDS011;50636;45.596;5.258;2022-10-16T05:17:38;7.40;;;2.97;;
64293;SDS011;50636;45.596;5.258;2022-10-16T05:20:03;7.15;;;3.55;;
64293;SDS011;50636;45.596;5.258;2022-10-16T05:22:29;4.05;;;3.13;;
64293;SDS011;50636;45.596;5.258;2022-10-16T05:24:55;8.55;;;3.85;;
64293;SDS011;50636;45.596;5.258;2022-10-16T05:27:21;7.95;;;3.67;;
64293;SDS011;50636;45.596;5.258;2022-10-16T05:29:47;6.32;;;3.95;;
64293;SDS011;50636;45.596;5.258;2022-10-16T05:32:14;5.72;;;4.63;;
64293;SDS011;50636;45.596;5.258;2022-10-16T05:34:41;8.18;;;3.67;;
64293;SDS011;50636;45.596;5.258;2022-10-16T05:37:07;7.00;;;4.18;;
64293;SDS011;50636;45.596;5.258;2022-10-16T05:39:33;6.35;;;3.85;;
64293;SDS011;50636;45.596;5.258;2022-10-16T05:41:59;5.47;;;3.53;;
64293;SDS011;50636;45.596;5.258;2022-10-16T05:44:25;7.32;;;3.67;;
64293;SDS011;50636;45.596;5.258;2022-10-16T05:46:50;6.90;;;3.90;;
64293;SDS011;50636;45.596;5.258;2022-10-16T05:49:16;7.20;;;3.42;;
64293;SDS011;50636;45.596;5.258;2022-10-16T05:51:42;12.55;;;4.40;;
64293;SDS011;50636;45.596;5.258;2022-10-16T05:54:08;7.40;;;3.95;;
64293;SDS011;50636;45.596;5.258;2022-10-16T05:56:33;5.70;;;4.28;;
64293;SDS011;50636;45.596;5.258;2022-10-16T05:58:59;6.60;;;4.00;;
64293;SDS011;50636;45.596;5.258;2022-10-16T06:01:25;7.53;;;3.83;;
64293;SDS011;50636;45.596;5.258;2022-10-16T06:03:51;11.77;;;3.97;;
64293;SDS011;50636;45.596;5.258;2022-10-16T06:06:19;9.23;;;4.18;;
64293;SDS011;50636;45.596;5.258;2022-10-16T06:08:46;8.50;;;4.55;;
64293;SDS011;50636;45.596;5.258;2022-10-16T06:11:14;13.05;;;4.15;;
64293;SDS011;50636;45.596;5.258;2022-10-16T06:13:42;9.45;;;4.25;;
64293;SDS011;50636;45.596;5.258;2022-10-16T06:16:08;7.07;;;4.18;;
64293;SDS011;50636;45.596;5.258;2022-10-16T06:18:35;5.00;;;3.70;;
64293;SDS011;50636;45.596;5.258;2022-10-16T06:21:06;6.85;;;3.97;;
64293;SDS011;50636;45.596;5.258;2022-10-16T06:23:41;6.68;;;3.83;;
64293;SDS011;50636;45.596;5.258;2022-10-16T06:26:08;11.20;;;4.35;;
64293;SDS011;50636;45.596;5.258;2022-10-16T06:28:35;8.30;;;4.20;;
64293;SDS011;50636;45.596;5.258;2022-10-16T06:31:02;13.02;;;3.85;;
64293;SDS011;50636;45.596;5.258;2022-10-16T06:33:29;8.55;;;3.88;;
64293;SDS011;50636;45.596;5.258;2022-10-16T06:36:08;6.13;;;2.97;;
64293;SDS011;50636;45.596;5.258;2022-10-16T06:38:42;12.35;;;4.32;;
64293;SDS011;50636;45.596;5.258;2022-10-16T06:41:14;4.63;;;3.20;;
64293;SDS011;50636;45.596;5.258;2022-10-16T06:43:41;8.43;;;3.53;;
64293;SDS011;50636;45.596;5.258;2022-10-16T06:46:10;6.15;;;2.90;;
64293;SDS011;50636;45.596;5.258;2022-10-16T06:48:37;5.60;;;3.67;;
64293;SDS011;50636;45.596;5.258;2022-10-16T06:51:37;10.60;;;4.07;;
64293;SDS011;50636;45.596;5.258;2022-10-16T06:53:57;5.03;;;3.47;;
64293;SDS011;50636;45.596;5.258;2022-10-16T06:56:23;10.00;;;3.78;;
64293;SDS011;50636;45.596;5.258;2022-10-16T06:58:51;8.40;;;3.90;;
64293;SDS011;50636;45.596;5.258;2022-10-16T07:01:18;6.85;;;3.22;;
64293;SDS011;50636;45.596;5.258;2022-10-16T07:03:46;9.85;;;3.72;;
64293;SDS011;50636;45.596;5.258;2022-10-16T07:06:13;7.53;;;3.22;;
64293;SDS011;50636;45.596;5.258;2022-10-16T07:08:42;9.85;;;2.90;;
64293;SDS011;50636;45.596;5.258;2022-10-16T07:11:10;7.80;;;3.42;;
64293;SDS011;50636;45.596;5.258;2022-10-16T07:13:38;7.78;;;3.08;;
64293;SDS011;50636;45.596;5.258;2022-10-16T07:16:05;11.13;;;3.28;;
64293;SDS011;50636;45.596;5.258;2022-10-16T07:18:31;8.95;;;3.17;;
64293;SDS011;50636;45.596;5.258;2022-10-16T07:21:04;8.32;;;3.10;;
64293;SDS011;50636;45.596;5.258;2022-10-16T07:23:34;8.13;;;3.20;;
64293;SDS011;50636;45.596;5.258;2022-10-16T07:26:00;7.47;;;2.83;;
64293;SDS011;50636;45.596;5.258;2022-10-16T07:28:26;6.32;;;2.38;;
64293;SDS011;50636;45.596;5.258;2022-10-16T07:30:52;7.40;;;3.65;;
64293;SDS011;50636;45.596;5.258;2022-10-16T07:33:18;7.05;;;2.45;;
64293;SDS011;50636;45.596;5.258;2022-10-16T07:35:48;4.40;;;2.38;;
64293;SDS011;50636;45.596;5.258;2022-10-16T07:38:15;5.20;;;2.47;;
64293;SDS011;50636;45.596;5.258;2022-10-16T07:40:41;5.25;;;2.90;;
64293;SDS011;50636;45.596;5.258;2022-10-16T07:43:07;5.15;;;2.88;;
64293;SDS011;50636;45.596;5.258;2022-10-16T07:45:32;4.80;;;2.05;;
64293;SDS011;50636;45.596;5.258;2022-10-16T07:47:58;5.72;;;2.40;;
64293;SDS011;50636;45.596;5.258;2022-10-16T07:50:24;6.18;;;2.58;;
64293;SDS011;50636;45.596;5.258;2022-10-16T07:52:49;4.93;;;2.20;;
64293;SDS011;50636;45.596;5.258;2022-10-16T07:55:15;6.57;;;2.03;;
64293;SDS011;50636;45.596;5.258;2022-10-16T07:57:41;8.00;;;2.40;;
64293;SDS011;50636;45.596;5.258;2022-10-16T08:00:07;3.85;;;2.15;;
64293;SDS011;50636;45.596;5.258;2022-10-16T08:02:38;4.22;;;2.10;;
64293;SDS011;50636;45.596;5.258;2022-10-16T08:05:05;3.80;;;2.10;;
64293;SDS011;50636;45.596;5.258;2022-10-16T08:07:31;4.82;;;2.22;;
64293;SDS011;50636;45.596;5.258;2022-10-16T08:09:57;5.82;;;2.63;;
64293;SDS011;50636;45.596;5.258;2022-10-16T08:12:24;4.35;;;2.88;;
64293;SDS011;50636;45.596;5.258;2022-10-16T08:14:50;6.72;;;2.17;;
64293;SDS011;50636;45.596;5.258;2022-10-16T08:17:16;7.15;;;2.58;;
64293;SDS011;50636;45.596;5.258;2022-10-16T08:19:45;8.18;;;2.47;;
64293;SDS011;50636;45.596;5.258;2022-10-16T08:22:12;5.82;;;3.08;;
64293;SDS011;50636;45.596;5.258;2022-10-16T08:24:39;3.17;;;1.83;;
64293;SDS011;50636;45.596;5.258;2022-10-16T08:27:06;3.53;;;1.77;;
64293;SDS011;50636;45.596;5.258;2022-10-16T08:29:34;3.03;;;1.90;;
64293;SDS011;50636;45.596;5.258;2022-10-16T08:32:00;5.22;;;2.20;;
64293;SDS011;50636;45.596;5.258;2022-10-16T08:34:25;5.93;;;2.00;;
64293;SDS011;50636;45.596;5.258;2022-10-16T08:36:52;4.82;;;2.97;;
64293;SDS011;50636;45.596;5.258;2022-10-16T08:39:19;3.78;;;1.85;;
64293;SDS011;50636;45.596;5.258;2022-10-16T08:47:39;2.80;;;1.90;;
64293;SDS011;50636;45.596;5.258;2022-10-16T08:50:13;6.03;;;1.65;;
64293;SDS011;50636;45.596;5.258;2022-10-16T08:52:46;7.07;;;2.07;;
64293;SDS011;50636;45.596;5.258;2022-10-16T08:57:49;7.68;;;2.58;;
64293;SDS011;50636;45.596;5.258;2022-10-16T09:00:15;7.75;;;2.30;;
64293;SDS011;50636;45.596;5.258;2022-10-16T09:05:38;7.25;;;4.50;;
64293;SDS011;50636;45.596;5.258;2022-10-16T09:16:17;6.40;;;1.98;;
64293;SDS011;50636;45.596;5.258;2022-10-16T09:21:37;5.60;;;1.80;;
64293;SDS011;50636;45.596;5.258;2022-10-16T09:24:14;2.90;;;1.08;;
64293;SDS011;50636;45.596;5.258;2022-10-16T09:29:11;4.85;;;1.92;;
64293;SDS011;50636;45.596;5.258;2022-10-16T09:31:41;5.82;;;1.52;;
64293;SDS011;50636;45.596;5.258;2022-10-16T09:34:17;4.22;;;1.70;;
64293;SDS011;50636;45.596;5.258;2022-10-16T09:36:59;4.15;;;1.55;;
64293;SDS011;50636;45.596;5.258;2022-10-16T09:39:26;4.60;;;2.08;;
64293;SDS011;50636;45.596;5.258;2022-10-16T09:41:52;5.85;;;1.88;;
64293;SDS011;50636;45.596;5.258;2022-10-16T09:46:44;4.03;;;1.90;;
64293;SDS011;50636;45.596;5.258;2022-10-16T09:49:21;4.20;;;1.30;;
64293;SDS011;50636;45.596;5.258;2022-10-16T09:51:49;2.72;;;1.23;;
64293;SDS011;50636;45.596;5.258;2022-10-16T09:54:17;6.07;;;1.30;;
64293;SDS011;50636;45.596;5.258;2022-10-16T09:56:45;5.13;;;1.70;;
64293;SDS011;50636;45.596;5.258;2022-10-16T09:59:15;3.15;;;1.23;;
64293;SDS011;50636;45.596;5.258;2022-10-16T10:01:44;9.35;;;2.53;;
64293;SDS011;50636;45.596;5.258;2022-10-16T10:04:12;5.60;;;1.30;;
64293;SDS011;50636;45.596;5.258;2022-10-16T10:09:27;3.83;;;1.58;;
64293;SDS011;50636;45.596;5.258;2022-10-16T10:12:17;6.28;;;1.52;;
64293;SDS011;50636;45.596;5.258;2022-10-16T10:14:55;6.50;;;1.38;;
64293;SDS011;50636;45.596;5.258;2022-10-16T10:17:26;5.82;;;1.70;;
64293;SDS011;50636;45.596;5.258;2022-10-16T10:19:54;3.72;;;1.60;;
64293;SDS011;50636;45.596;5.258;2022-10-16T10:22:23;4.38;;;1.90;;
64293;SDS011;50636;45.596;5.258;2022-10-16T10:24:54;2.63;;;1.38;;
64293;SDS011;50636;45.596;5.258;2022-10-16T10:30:35;8.25;;;2.15;;
64293;SDS011;50636;45.596;5.258;2022-10-16T10:33:21;3.80;;;1.42;;
64293;SDS011;50636;45.596;5.258;2022-10-16T10:36:08;4.07;;;1.73;;
64293;SDS011;50636;45.596;5.258;2022-10-16T10:39:01;7.78;;;1.90;;
64293;SDS011;50636;45.596;5.258;2022-10-16T10:44:51;5.28;;;1.80;;
64293;SDS011;50636;45.596;5.258;2022-10-16T10:56:10;4.97;;;1.50;;
64293;SDS011;50636;45.596;5.258;2022-10-16T10:58:53;5.43;;;1.38;;
64293;SDS011;50636;45.596;5.258;2022-10-16T11:01:33;2.78;;;1.45;;
64293;SDS011;50636;45.596;5.258;2022-10-16T11:04:27;2.47;;;1.40;;
64293;SDS011;50636;45.596;5.258;2022-10-16T11:06:59;2.90;;;1.17;;
64293;SDS011;50636;45.596;5.258;2022-10-16T11:09:34;5.50;;;1.33;;
64293;SDS011;50636;45.596;5.258;2022-10-16T11:12:26;6.95;;;1.90;;
64293;SDS011;50636;45.596;5.258;2022-10-16T11:17:49;6.45;;;1.55;;
64293;SDS011;50636;45.596;5.258;2022-10-16T11:20:51;7.78;;;1.63;;
64293;SDS011;50636;45.596;5.258;2022-10-16T11:25:47;6.28;;;1.80;;
64293;SDS011;50636;45.596;5.258;2022-10-16T11:28:15;6.75;;;1.58;;
64293;SDS011;50636;45.596;5.258;2022-10-16T11:30:51;5.15;;;1.90;;
64293;SDS011;50636;45.596;5.258;2022-10-16T11:41:55;4.22;;;2.00;;
64293;SDS011;50636;45.596;5.258;2022-10-16T11:52:52;7.78;;;1.98;;
64293;SDS011;50636;45.596;5.258;2022-10-16T11:55:32;8.43;;;2.38;;
64293;SDS011;50636;45.596;5.258;2022-10-16T11:58:12;4.55;;;1.45;;
64293;SDS011;50636;45.596;5.258;2022-10-16T12:01:10;4.32;;;1.55;;
64293;SDS011;50636;45.596;5.258;2022-10-16T12:09:30;6.22;;;1.90;;
64293;SDS011;50636;45.596;5.258;2022-10-16T12:11:58;5.03;;;1.48;;
64293;SDS011;50636;45.596;5.258;2022-10-16T12:17:20;5.53;;;2.10;;
64293;SDS011;50636;45.596;5.258;2022-10-16T12:20:00;6.80;;;1.58;;
64293;SDS011;50636;45.596;5.258;2022-10-16T12:22:48;4.43;;;1.40;;
64293;SDS011;50636;45.596;5.258;2022-10-16T12:25:20;10.02;;;2.30;;
64293;SDS011;50636;45.596;5.258;2022-10-16T12:27:52;8.95;;;1.92;;
64293;SDS011;50636;45.596;5.258;2022-10-16T12:30:54;7.65;;;2.25;;
64293;SDS011;50636;45.596;5.258;2022-10-16T12:33:32;3.45;;;1.23;;
64293;SDS011;50636;45.596;5.258;2022-10-16T12:36:11;6.28;;;1.83;;
64293;SDS011;50636;45.596;5.258;2022-10-16T12:38:48;5.43;;;1.50;;
64293;SDS011;50636;45.596;5.258;2022-10-16T12:41:59;4.70;;;1.63;;
64293;SDS011;50636;45.596;5.258;2022-10-16T12:44:25;29.48;;;3.03;;
64293;SDS011;50636;45.596;5.258;2022-10-16T12:46:56;14.38;;;1.88;;
64293;SDS011;50636;45.596;5.258;2022-10-16T12:51:53;11.60;;;2.17;;
64293;SDS011;50636;45.596;5.258;2022-10-16T12:54:35;146.20;;;9.80;;
64293;SDS011;50636;45.596;5.258;2022-10-16T12:59:48;6.25;;;1.50;;
64293;SDS011;50636;45.596;5.258;2022-10-16T13:18:56;5.70;;;2.10;;
64293;SDS011;50636;45.596;5.258;2022-10-16T13:21:33;4.90;;;1.70;;
64293;SDS011;50636;45.596;5.258;2022-10-16T13:24:42;5.70;;;1.77;;
64293;SDS011;50636;45.596;5.258;2022-10-16T13:29:59;5.60;;;1.63;;
64293;SDS011;50636;45.596;5.258;2022-10-16T13:32:37;3.92;;;2.20;;
64293;SDS011;50636;45.596;5.258;2022-10-16T13:35:15;5.65;;;2.13;;
64293;SDS011;50636;45.596;5.258;2022-10-16T13:37:45;11.05;;;2.33;;
64293;SDS011;50636;45.596;5.258;2022-10-16T13:40:18;8.35;;;2.45;;
64293;SDS011;50636;45.596;5.258;2022-10-16T13:42:46;4.03;;;1.63;;
64293;SDS011;50636;45.596;5.258;2022-10-16T13:45:22;1.85;;;1.20;;
64293;SDS011;50636;45.596;5.258;2022-10-16T13:48:02;11.90;;;4.97;;
64293;SDS011;50636;45.596;5.258;2022-10-16T13:50:29;33.45;;;21.25;;
64293;SDS011;50636;45.596;5.258;2022-10-16T13:53:12;52.70;;;31.35;;
64293;SDS011;50636;45.596;5.258;2022-10-16T13:55:39;44.90;;;23.45;;
64293;SDS011;50636;45.596;5.258;2022-10-16T13:58:07;40.88;;;25.00;;
64293;SDS011;50636;45.596;5.258;2022-10-16T14:00:36;29.77;;;19.63;;
64293;SDS011;50636;45.596;5.258;2022-10-16T14:03:03;18.00;;;10.95;;
64293;SDS011;50636;45.596;5.258;2022-10-16T14:05:46;17.77;;;9.75;;
64293;SDS011;50636;45.596;5.258;2022-10-16T14:08:14;15.00;;;8.70;;
64293;SDS011;50636;45.596;5.258;2022-10-16T14:10:40;7.05;;;3.05;;
64293;SDS011;50636;45.596;5.258;2022-10-16T14:13:07;9.30;;;5.18;;
64293;SDS011;50636;45.596;5.258;2022-10-16T14:15:38;29.30;;;14.32;;
64293;SDS011;50636;45.596;5.258;2022-10-16T14:18:04;18.35;;;10.43;;
64293;SDS011;50636;45.596;5.258;2022-10-16T14:20:31;6.63;;;3.05;;
64293;SDS011;50636;45.596;5.258;2022-10-16T14:23:41;11.55;;;5.05;;
64293;SDS011;50636;45.596;5.258;2022-10-16T14:25:53;7.15;;;4.32;;
64293;SDS011;50636;45.596;5.258;2022-10-16T14:28:22;6.40;;;2.80;;
64293;SDS011;50636;45.596;5.258;2022-10-16T14:30:49;2.88;;;2.17;;
64293;SDS011;50636;45.596;5.258;2022-10-16T14:38:36;8.13;;;2.58;;
64293;SDS011;50636;45.596;5.258;2022-10-16T14:41:07;11.40;;;3.33;;
64293;SDS011;50636;45.596;5.258;2022-10-16T14:43:37;8.55;;;2.65;;
64293;SDS011;50636;45.596;5.258;2022-10-16T14:46:17;8.45;;;3.08;;
64293;SDS011;50636;45.596;5.258;2022-10-16T14:48:47;6.45;;;3.85;;
64293;SDS011;50636;45.596;5.258;2022-10-16T14:51:16;7.15;;;2.80;;
64293;SDS011;50636;45.596;5.258;2022-10-16T14:53:46;4.53;;;2.30;;
64293;SDS011;50636;45.596;5.258;2022-10-16T14:56:19;5.68;;;2.38;;
64293;SDS011;50636;45.596;5.258;2022-10-16T14:58:50;8.00;;;1.90;;
64293;SDS011;50636;45.596;5.258;2022-10-16T15:01:16;6.28;;;2.40;;
64293;SDS011;50636;45.596;5.258;2022-10-16T15:03:42;4.45;;;2.33;;
64293;SDS011;50636;45.596;5.258;2022-10-16T15:06:12;7.22;;;2.15;;
64293;SDS011;50636;45.596;5.258;2022-10-16T15:08:40;7.15;;;2.38;;
64293;SDS011;50636;45.596;5.258;2022-10-16T15:11:12;5.95;;;1.85;;
64293;SDS011;50636;45.596;5.258;2022-10-16T15:13:41;6.50;;;2.97;;
64293;SDS011;50636;45.596;5.258;2022-10-16T15:16:16;5.53;;;1.88;;
64293;SDS011;50636;45.596;5.258;2022-10-16T15:18:42;5.05;;;1.95;;
64293;SDS011;50636;45.596;5.258;2022-10-16T15:21:08;3.13;;;2.03;;
64293;SDS011;50636;45.596;5.258;2022-10-16T15:23:49;6.15;;;2.33;;
64293;SDS011;50636;45.596;5.258;2022-10-16T15:26:15;3.65;;;1.80;;
64293;SDS011;50636;45.596;5.258;2022-10-16T15:28:41;4.63;;;2.50;;
64293;SDS011;50636;45.596;5.258;2022-10-16T15:31:07;11.88;;;3.03;;
64293;SDS011;50636;45.596;5.258;2022-10-16T15:33:33;3.70;;;2.22;;
64293;SDS011;50636;45.596;5.258;2022-10-16T15:35:59;4.20;;;2.13;;
64293;SDS011;50636;45.596;5.258;2022-10-16T15:38:26;3.28;;;1.83;;
64293;SDS011;50636;45.596;5.258;2022-10-16T15:40:53;3.83;;;2.38;;
64293;SDS011;50636;45.596;5.258;2022-10-16T15:43:19;2.92;;;1.77;;
64293;SDS011;50636;45.596;5.258;2022-10-16T15:46:01;4.72;;;1.88;;
64293;SDS011;50636;45.596;5.258;2022-10-16T15:48:28;4.38;;;2.20;;
64293;SDS011;50636;45.596;5.258;2022-10-16T15:50:54;4.32;;;1.90;;
64293;SDS011;50636;45.596;5.258;2022-10-16T15:53:20;8.02;;;2.15;;
64293;SDS011;50636;45.596;5.258;2022-10-16T15:55:46;7.07;;;1.95;;
64293;SDS011;50636;45.596;5.258;2022-10-16T15:58:11;8.07;;;2.13;;
64293;SDS011;50636;45.596;5.258;2022-10-16T16:00:37;7.30;;;2.60;;
64293;SDS011;50636;45.596;5.258;2022-10-16T16:03:03;6.93;;;2.22;;
64293;SDS011;50636;45.596;5.258;2022-10-16T16:05:29;7.57;;;3.00;;
64293;SDS011;50636;45.596;5.258;2022-10-16T16:07:55;7.60;;;2.20;;
64293;SDS011;50636;45.596;5.258;2022-10-16T16:10:22;4.47;;;2.03;;
64293;SDS011;50636;45.596;5.258;2022-10-16T16:12:48;4.03;;;2.28;;
64293;SDS011;50636;45.596;5.258;2022-10-16T16:15:21;8.93;;;2.30;;
64293;SDS011;50636;45.596;5.258;2022-10-16T16:17:47;5.57;;;2.35;;
64293;SDS011;50636;45.596;5.258;2022-10-16T16:20:14;7.90;;;2.13;;
64293;SDS011;50636;45.596;5.258;2022-10-16T16:22:40;2.45;;;1.58;;
64293;SDS011;50636;45.596;5.258;2022-10-16T16:25:06;3.85;;;2.03;;
64293;SDS011;50636;45.596;5.258;2022-10-16T16:27:33;4.93;;;2.35;;
64293;SDS011;50636;45.596;5.258;2022-10-16T16:30:00;6.38;;;3.00;;
64293;SDS011;50636;45.596;5.258;2022-10-16T16:32:28;5.43;;;2.35;;
64293;SDS011;50636;45.596;5.258;2022-10-16T16:34:54;12.45;;;2.80;;
64293;SDS011;50636;45.596;5.258;2022-10-16T16:37:20;4.20;;;2.03;;
64293;SDS011;50636;45.596;5.258;2022-10-16T16:39:46;8.00;;;2.60;;
64293;SDS011;50636;45.596;5.258;2022-10-16T16:42:12;3.95;;;2.08;;
64293;SDS011;50636;45.596;5.258;2022-10-16T16:44:37;6.35;;;2.13;;
64293;SDS011;50636;45.596;5.258;2022-10-16T16:47:04;9.27;;;3.05;;
64293;SDS011;50636;45.596;5.258;2022-10-16T16:49:30;6.85;;;2.45;;
64293;SDS011;50636;45.596;5.258;2022-10-16T16:51:56;4.05;;;2.00;;
64293;SDS011;50636;45.596;5.258;2022-10-16T16:54:22;4.93;;;2.15;;
64293;SDS011;50636;45.596;5.258;2022-10-16T16:56:48;3.10;;;2.13;;
64293;SDS011;50636;45.596;5.258;2022-10-16T16:59:15;4.43;;;2.30;;
64293;SDS011;50636;45.596;5.258;2022-10-16T17:01:44;9.50;;;2.45;;
64293;SDS011;50636;45.596;5.258;2022-10-16T17:04:11;4.28;;;2.38;;
64293;SDS011;50636;45.596;5.258;2022-10-16T17:06:40;9.80;;;2.55;;
64293;SDS011;50636;45.596;5.258;2022-10-16T17:09:06;5.35;;;2.60;;
64293;SDS011;50636;45.596;5.258;2022-10-16T17:11:33;7.57;;;2.83;;
64293;SDS011;50636;45.596;5.258;2022-10-16T17:13:59;6.20;;;2.80;;